createdAt,value
2022-08-07T00:14:30.232Z,1022.73
2022-08-07T00:29:26.437Z,1022.63
2022-08-07T00:44:26.555Z,1022.58
2022-08-07T00:59:35.156Z,1022.46
2022-08-07T01:14:28.710Z,1022.25
2022-08-07T01:29:27.723Z,1022.25
2022-08-07T01:44:26.691Z,1022.18
2022-08-07T01:59:30.986Z,1022.09
2022-08-07T02:14:36.086Z,1022.09
2022-08-07T02:29:26.778Z,1021.98
2022-08-07T02:44:34.726Z,1021.95
2022-08-07T02:59:27.451Z,1021.95
2022-08-07T03:14:27.931Z,1021.93
2022-08-07T03:29:27.641Z,1021.98
2022-08-07T03:44:34.564Z,1021.85
2022-08-07T03:59:27.001Z,1021.92
2022-08-07T04:14:38.645Z,1021.84
2022-08-07T04:29:27.072Z,1021.92
2022-08-07T04:44:27.153Z,1021.94
2022-08-07T05:00:11.803Z,1022.10
2022-08-07T05:14:55.527Z,1022.07
2022-08-07T05:29:27.332Z,1022.15
2022-08-07T05:44:29.292Z,1022.15
2022-08-07T05:59:28.024Z,1022.23
2022-08-07T06:14:28.851Z,1022.17
2022-08-07T06:29:27.552Z,1022.25
2022-08-07T06:44:31.149Z,1022.19
2022-08-07T07:00:13.862Z,1022.10
2022-08-07T07:14:27.504Z,1022.11
2022-08-07T07:29:39.180Z,1021.97
2022-08-07T07:44:27.833Z,1021.93
2022-08-07T07:59:52.766Z,1021.92
2022-08-07T08:14:27.912Z,1021.85
2022-08-07T08:29:27.920Z,1021.86
2022-08-07T08:44:29.315Z,1021.59
2022-08-07T08:59:27.820Z,1021.44
2022-08-07T09:14:29.635Z,1021.51
2022-08-07T09:30:03.873Z,1021.49
2022-08-07T09:44:32.839Z,1021.31
2022-08-07T09:59:30.525Z,1021.31
2022-08-07T10:14:31.965Z,1021.16
2022-08-07T10:29:30.153Z,1020.90
2022-08-07T10:44:33.778Z,1020.84
2022-08-07T10:59:30.446Z,1020.66
2022-08-07T11:14:43.989Z,1020.47
2022-08-07T11:29:41.791Z,1020.43
2022-08-07T11:44:28.473Z,1020.20
2022-08-07T12:00:10.443Z,1020.18
2022-08-07T12:14:28.520Z,1020.00
2022-08-07T12:29:37.527Z,1020.07
2022-08-07T12:44:28.438Z,1019.96
2022-08-07T12:59:30.471Z,1019.83
2022-08-07T13:14:29.104Z,1019.71
2022-08-07T13:29:28.535Z,1019.54
2022-08-07T13:44:34.686Z,1019.42
2022-08-07T13:59:28.832Z,1019.21
2022-08-07T14:14:29.991Z,1019.21
2022-08-07T14:30:05.824Z,1019.09
2022-08-07T14:44:29.074Z,1018.96
2022-08-07T15:00:05.781Z,1018.87
2022-08-07T15:14:30.818Z,1018.84
2022-08-07T15:30:06.885Z,1018.79
2022-08-07T15:44:28.939Z,1018.67
2022-08-07T15:59:43.794Z,1018.56
2022-08-07T16:14:29.169Z,1018.52
2022-08-07T16:30:11.001Z,1018.54
2022-08-07T16:44:40.215Z,1018.50
2022-08-07T16:59:46.377Z,1018.49
2022-08-07T17:14:29.205Z,1018.40
2022-08-07T17:30:15.380Z,1018.54
2022-08-07T17:44:33.591Z,1018.50
2022-08-07T17:59:35.727Z,1018.52
2022-08-07T18:14:29.191Z,1018.55
2022-08-07T18:30:05.703Z,1018.78
2022-08-07T18:44:29.463Z,1018.91
2022-08-07T18:59:47.325Z,1019.00
2022-08-07T19:14:29.551Z,1019.15
2022-08-07T19:31:02.072Z,1019.33
2022-08-07T19:44:31.518Z,1019.46
2022-08-07T19:59:40.686Z,1019.58
2022-08-07T20:14:31.336Z,1019.60
2022-08-07T20:29:48.907Z,1019.69
2022-08-07T20:44:29.825Z,1019.75
2022-08-07T21:00:06.222Z,1019.68
2022-08-07T21:14:34.280Z,1019.93
2022-08-07T21:29:30.367Z,1019.99
2022-08-07T21:44:30.291Z,1020.02
2022-08-07T21:59:30.110Z,1020.03
2022-08-07T22:14:34.844Z,1020.20
2022-08-07T22:29:38.098Z,1020.19
2022-08-07T22:44:32.650Z,1020.25
2022-08-07T22:59:32.699Z,1020.27
2022-08-07T23:14:30.724Z,1020.39
2022-08-07T23:29:43.454Z,1020.45
2022-08-07T23:44:30.658Z,1020.27
